createdAt,value
2019-01-27T00:01:13.947Z,0.40
2019-01-27T00:03:43.519Z,0.30
2019-01-27T00:06:13.136Z,0.30
2019-01-27T00:08:42.752Z,0.30
2019-01-27T00:11:12.303Z,0.30
2019-01-27T00:13:41.781Z,0.30
2019-01-27T00:16:11.376Z,0.30
2019-01-27T00:18:40.986Z,0.30
2019-01-27T00:21:10.560Z,0.30
2019-01-27T00:23:40.048Z,0.30
2019-01-27T00:26:09.556Z,0.30
2019-01-27T00:28:39.016Z,0.30
2019-01-27T00:31:08.604Z,0.30
2019-01-27T00:33:38.092Z,0.20
2019-01-27T00:36:07.600Z,0.20
2019-01-27T00:38:37.119Z,0.20
2019-01-27T00:41:06.601Z,0.30
2019-01-27T00:43:36.044Z,0.30
2019-01-27T00:46:05.613Z,0.30
2019-01-27T00:48:35.068Z,0.20
2019-01-27T00:51:04.811Z,0.20
2019-01-27T00:53:34.344Z,0.20
2019-01-27T00:56:04.104Z,0.20
2019-01-27T00:58:33.593Z,0.20
2019-01-27T01:01:03.487Z,0.20
2019-01-27T01:03:32.992Z,0.20
2019-01-27T01:06:02.825Z,0.20
2019-01-27T01:08:32.356Z,0.10
2019-01-27T01:11:01.828Z,0.10
2019-01-27T01:13:31.268Z,0.10
2019-01-27T01:16:00.773Z,0.10
2019-01-27T01:18:30.223Z,0.10
2019-01-27T01:20:59.671Z,0.10
2019-01-27T01:23:29.251Z,0.10
2019-01-27T01:25:58.735Z,0.10
2019-01-27T01:28:28.204Z,0.10
2019-01-27T01:30:57.732Z,0.10
2019-01-27T01:33:27.313Z,0.10
2019-01-27T01:35:56.752Z,0.10
2019-01-27T01:38:26.216Z,0.10
2019-01-27T01:40:55.672Z,0.10
2019-01-27T01:43:25.157Z,0.10
2019-01-27T01:45:54.633Z,0.10
2019-01-27T01:48:25.044Z,0.10
2019-01-27T01:50:54.506Z,0.10
2019-01-27T01:53:24.019Z,0.10
2019-01-27T01:55:53.492Z,0.10
2019-01-27T01:58:22.947Z,0.10
2019-01-27T02:00:52.420Z,0.10
2019-01-27T02:03:22.127Z,0.10
2019-01-27T02:05:53.883Z,0.10
2019-01-27T02:08:23.085Z,0.10
2019-01-27T02:10:52.667Z,0.10
2019-01-27T02:13:22.283Z,0.00
2019-01-27T02:16:09.527Z,0.00
2019-01-27T02:18:40.081Z,0.10
2019-01-27T02:21:09.828Z,0.10
2019-01-27T02:23:42.444Z,0.00
2019-01-27T02:26:11.999Z,0.10
2019-01-27T02:28:41.435Z,0.00
2019-01-27T02:31:10.929Z,0.10
2019-01-27T02:33:40.424Z,0.00
2019-01-27T02:36:09.900Z,0.10
2019-01-27T02:38:39.428Z,0.10
2019-01-27T02:41:08.980Z,0.10
2019-01-27T02:43:38.423Z,0.10
2019-01-27T02:46:08.184Z,0.10
2019-01-27T02:48:37.698Z,0.10
2019-01-27T02:51:07.149Z,0.10
2019-01-27T02:53:36.647Z,0.10
2019-01-27T02:56:06.557Z,0.10
2019-01-27T02:58:36.079Z,0.10
2019-01-27T03:01:05.991Z,0.20
2019-01-27T03:03:35.447Z,0.20
2019-01-27T03:06:23.454Z,0.20
2019-01-27T03:09:14.726Z,0.20
2019-01-27T03:11:51.021Z,0.20
2019-01-27T03:14:21.301Z,0.20
2019-01-27T03:16:52.048Z,0.20
2019-01-27T03:19:21.542Z,0.20
2019-01-27T03:21:50.975Z,0.20
2019-01-27T03:24:20.448Z,0.30
2019-01-27T03:26:49.953Z,0.30
2019-01-27T03:29:19.396Z,0.30
2019-01-27T03:31:48.833Z,0.30
2019-01-27T03:34:18.318Z,0.30
2019-01-27T03:36:47.784Z,0.30
2019-01-27T03:39:17.221Z,0.30
2019-01-27T03:41:46.696Z,0.30
2019-01-27T03:44:16.173Z,0.30
2019-01-27T03:46:45.747Z,0.30
2019-01-27T03:49:15.325Z,0.40
2019-01-27T03:51:44.768Z,0.30
2019-01-27T03:54:14.297Z,0.30
2019-01-27T03:56:43.790Z,0.30
2019-01-27T03:59:13.286Z,0.30
2019-01-27T04:01:42.803Z,0.30
2019-01-27T04:04:12.549Z,0.30
2019-01-27T04:06:42.044Z,0.40
2019-01-27T04:09:13.113Z,0.40
2019-01-27T04:11:42.600Z,0.40
2019-01-27T04:14:12.043Z,0.40
2019-01-27T04:16:41.522Z,0.40
2019-01-27T04:19:11.066Z,0.40
2019-01-27T04:21:40.512Z,0.40
2019-01-27T04:24:10.074Z,0.40
2019-01-27T04:26:39.624Z,0.40
2019-01-27T04:29:09.098Z,0.40
2019-01-27T04:31:38.592Z,0.40
2019-01-27T04:34:08.172Z,0.50
2019-01-27T04:36:37.607Z,0.50
2019-01-27T04:39:10.045Z,0.50
2019-01-27T04:41:39.596Z,0.50
2019-01-27T04:44:09.114Z,0.50
2019-01-27T04:46:38.588Z,0.50
2019-01-27T04:49:08.156Z,0.50
2019-01-27T04:51:37.664Z,0.50
2019-01-27T04:54:07.358Z,0.50
2019-01-27T04:56:36.882Z,0.50
2019-01-27T04:59:06.338Z,0.50
2019-01-27T05:01:35.860Z,0.50
2019-01-27T05:04:20.048Z,0.50
2019-01-27T05:06:49.598Z,0.60
2019-01-27T05:09:20.129Z,0.50
2019-01-27T05:11:49.640Z,0.50
2019-01-27T05:14:19.298Z,0.50
2019-01-27T05:16:48.800Z,0.60
2019-01-27T05:19:21.465Z,0.60
2019-01-27T05:21:50.997Z,0.60
2019-01-27T05:24:20.508Z,0.60
2019-01-27T05:26:50.155Z,0.60
2019-01-27T05:29:19.615Z,0.60
2019-01-27T05:31:49.087Z,0.60
2019-01-27T05:34:18.741Z,0.60
2019-01-27T05:36:48.199Z,0.60
2019-01-27T05:39:17.636Z,0.60
2019-01-27T05:41:47.207Z,0.60
2019-01-27T05:44:20.390Z,0.60
2019-01-27T05:46:49.968Z,0.70
2019-01-27T05:49:19.717Z,0.70
2019-01-27T05:51:49.578Z,0.70
2019-01-27T05:54:20.243Z,0.70
2019-01-27T05:56:56.447Z,0.70
2019-01-27T05:59:20.825Z,0.70
2019-01-27T06:01:50.408Z,0.70
2019-01-27T06:04:19.869Z,0.70
2019-01-27T06:06:49.370Z,0.70
2019-01-27T06:09:18.906Z,0.70
2019-01-27T06:11:48.442Z,0.70
2019-01-27T06:14:17.902Z,0.70
2019-01-27T06:16:47.412Z,0.70
2019-01-27T06:19:16.944Z,0.70
2019-01-27T06:21:46.447Z,0.70
2019-01-27T06:24:16.004Z,0.70
2019-01-27T06:26:45.639Z,0.70
2019-01-27T06:29:15.079Z,0.70
2019-01-27T06:31:44.548Z,0.70
2019-01-27T06:34:16.907Z,0.70
2019-01-27T06:36:46.428Z,0.70
2019-01-27T06:39:16.015Z,0.70
2019-01-27T06:41:48.368Z,0.70
2019-01-27T06:44:17.948Z,0.70
2019-01-27T06:46:47.548Z,0.70
2019-01-27T06:49:17.060Z,0.70
2019-01-27T06:51:46.569Z,0.70
2019-01-27T06:54:18.411Z,0.80
2019-01-27T06:56:48.232Z,0.80
2019-01-27T06:59:28.152Z,0.70
2019-01-27T07:02:15.059Z,0.80
2019-01-27T07:05:12.269Z,0.80
2019-01-27T07:08:09.472Z,0.80
2019-01-27T07:10:57.989Z,0.80
2019-01-27T07:13:46.580Z,0.80
2019-01-27T07:16:30.387Z,0.80
2019-01-27T07:19:22.184Z,0.80
2019-01-27T07:22:13.397Z,0.80
2019-01-27T07:24:57.028Z,0.80
2019-01-27T07:27:33.733Z,0.80
2019-01-27T07:30:34.164Z,0.80
2019-01-27T07:33:28.441Z,0.80
2019-01-27T07:36:10.832Z,0.90
2019-01-27T07:38:54.558Z,0.90
2019-01-27T07:42:01.095Z,0.80
2019-01-27T07:44:44.744Z,0.80
2019-01-27T07:47:51.144Z,0.90
2019-01-27T07:50:40.300Z,0.90
2019-01-27T07:53:28.882Z,0.80
2019-01-27T07:56:21.008Z,0.90
2019-01-27T07:58:58.509Z,0.90
2019-01-27T08:01:37.989Z,0.80
2019-01-27T08:04:20.988Z,0.90
2019-01-27T08:07:15.484Z,0.90
2019-01-27T08:10:15.744Z,0.90
2019-01-27T08:13:01.685Z,0.90
2019-01-27T08:16:08.772Z,0.90
2019-01-27T08:19:15.149Z,0.90
2019-01-27T08:22:01.122Z,0.90
2019-01-27T08:24:48.168Z,0.90
2019-01-27T08:27:35.132Z,0.90
2019-01-27T08:30:22.933Z,0.90
2019-01-27T08:33:11.373Z,0.90
2019-01-27T08:35:49.681Z,1.00
2019-01-27T08:38:29.084Z,0.90
2019-01-27T08:41:17.509Z,1.00
2019-01-27T08:44:20.934Z,1.00
2019-01-27T08:46:54.184Z,1.00
2019-01-27T08:49:23.692Z,1.00
2019-01-27T08:51:53.484Z,1.00
2019-01-27T08:54:22.988Z,1.10
2019-01-27T08:56:52.527Z,1.10
2019-01-27T08:59:22.164Z,1.10
2019-01-27T09:02:14.805Z,1.10
2019-01-27T09:04:51.024Z,1.10
2019-01-27T09:07:48.346Z,1.10
2019-01-27T09:10:35.313Z,1.10
2019-01-27T09:13:36.843Z,1.10
2019-01-27T09:16:28.110Z,1.10
2019-01-27T09:19:08.225Z,1.10
2019-01-27T09:21:53.800Z,1.10
2019-01-27T09:24:54.365Z,1.20
2019-01-27T09:27:32.606Z,1.20
2019-01-27T09:30:13.343Z,1.20
2019-01-27T09:32:53.955Z,1.20
2019-01-27T09:35:34.338Z,1.20
2019-01-27T09:38:24.240Z,1.20
2019-01-27T09:41:11.628Z,1.20
2019-01-27T09:43:58.657Z,1.30
2019-01-27T09:46:50.382Z,1.30
2019-01-27T09:49:46.482Z,1.30
2019-01-27T09:52:34.960Z,1.30
2019-01-27T09:55:26.322Z,1.20
2019-01-27T09:58:02.368Z,1.30
2019-01-27T10:00:43.063Z,1.30
2019-01-27T10:03:24.310Z,1.30
2019-01-27T10:06:11.407Z,1.30
2019-01-27T10:09:03.014Z,1.30
2019-01-27T10:11:50.917Z,1.30
2019-01-27T10:14:34.174Z,1.30
2019-01-27T10:17:21.922Z,1.30
2019-01-27T10:20:01.711Z,1.30
2019-01-27T10:22:52.706Z,1.40
2019-01-27T10:25:54.362Z,1.40
2019-01-27T10:28:47.440Z,1.40
2019-01-27T10:31:48.749Z,1.40
2019-01-27T10:34:47.385Z,1.40
2019-01-27T10:37:47.319Z,1.50
2019-01-27T10:40:44.179Z,1.50
2019-01-27T10:43:50.622Z,1.50
2019-01-27T10:47:10.910Z,1.50
2019-01-27T10:50:42.897Z,1.50
2019-01-27T10:54:25.572Z,1.50
2019-01-27T11:01:41.369Z,1.50
2019-01-27T11:04:59.032Z,1.50
2019-01-27T11:08:19.309Z,1.50
2019-01-27T11:11:48.572Z,1.50
2019-01-27T11:14:44.704Z,1.50
2019-01-27T11:17:39.552Z,1.50
2019-01-27T11:20:49.426Z,1.60
2019-01-27T11:23:54.684Z,1.60
2019-01-27T11:26:43.136Z,1.60
2019-01-27T11:29:39.056Z,1.60
2019-01-27T11:32:33.331Z,1.60
2019-01-27T11:35:29.304Z,1.70
2019-01-27T11:38:18.385Z,1.70
2019-01-27T11:40:55.763Z,1.70
2019-01-27T11:43:43.031Z,1.70
2019-01-27T11:46:22.235Z,1.80
2019-01-27T11:49:19.475Z,1.80
2019-01-27T11:52:00.516Z,1.80
2019-01-27T11:54:30.806Z,1.80
2019-01-27T11:57:00.721Z,1.80
2019-01-27T11:59:30.647Z,1.80
2019-01-27T12:02:01.043Z,1.70
2019-01-27T12:04:31.379Z,1.70
2019-01-27T12:07:01.650Z,1.70
2019-01-27T12:09:31.322Z,1.70
2019-01-27T12:12:01.267Z,1.70
2019-01-27T12:14:31.112Z,1.70
2019-01-27T12:17:00.968Z,1.70
2019-01-27T12:19:30.609Z,1.70
2019-01-27T12:22:00.293Z,1.70
2019-01-27T12:24:30.122Z,1.70
2019-01-27T12:26:59.855Z,1.70
2019-01-27T12:29:30.049Z,1.70
2019-01-27T12:32:00.677Z,1.60
2019-01-27T12:34:31.210Z,1.60
2019-01-27T12:37:03.794Z,1.60
2019-01-27T12:39:39.515Z,1.60
2019-01-27T12:42:36.116Z,1.60
2019-01-27T12:45:08.726Z,1.60
2019-01-27T12:47:38.554Z,1.60
2019-01-27T12:50:10.851Z,1.60
2019-01-27T12:53:05.596Z,1.70
2019-01-27T12:55:37.387Z,1.70
2019-01-27T12:58:10.336Z,1.70
2019-01-27T13:00:43.805Z,1.70
2019-01-27T13:03:13.922Z,1.70
2019-01-27T13:05:43.648Z,1.70
2019-01-27T13:08:13.237Z,1.70
2019-01-27T13:10:43.506Z,1.70
2019-01-27T13:13:18.277Z,1.70
2019-01-27T13:16:04.023Z,1.80
2019-01-27T13:18:44.331Z,1.80
2019-01-27T13:21:14.319Z,1.80
2019-01-27T13:23:46.799Z,1.80
2019-01-27T13:26:19.248Z,1.80
2019-01-27T13:28:54.147Z,1.80
2019-01-27T13:31:23.798Z,1.90
2019-01-27T13:33:53.673Z,1.90
2019-01-27T13:36:24.244Z,1.80
2019-01-27T13:38:54.518Z,1.80
2019-01-27T13:41:26.049Z,1.70
2019-01-27T13:43:55.721Z,1.70
2019-01-27T13:46:25.596Z,1.70
2019-01-27T13:48:55.272Z,1.70
2019-01-27T13:51:25.479Z,1.60
2019-01-27T13:53:57.976Z,1.60
2019-01-27T13:56:27.762Z,1.60
2019-01-27T13:58:57.490Z,1.60
2019-01-27T14:01:27.093Z,1.70
2019-01-27T14:04:27.467Z,1.70
2019-01-27T14:07:00.717Z,1.70
2019-01-27T14:09:30.406Z,1.70
2019-01-27T14:12:00.376Z,1.70
2019-01-27T14:14:30.366Z,1.80
2019-01-27T14:17:09.470Z,1.80
2019-01-27T14:19:41.255Z,1.80
2019-01-27T14:22:11.783Z,1.90
2019-01-27T14:24:44.613Z,1.90
2019-01-27T14:27:20.813Z,2.00
2019-01-27T14:29:50.842Z,2.10
2019-01-27T14:32:23.854Z,2.10
2019-01-27T14:34:53.670Z,2.10
2019-01-27T14:37:24.399Z,2.10
2019-01-27T14:39:54.109Z,2.10
2019-01-27T14:42:32.212Z,2.20
2019-01-27T14:45:02.105Z,2.20
2019-01-27T14:47:34.503Z,2.10
2019-01-27T14:50:12.320Z,2.10
2019-01-27T14:52:42.191Z,2.20
2019-01-27T14:55:13.235Z,2.20
2019-01-27T14:57:43.673Z,2.20
2019-01-27T15:00:25.425Z,2.20
2019-01-27T15:02:55.341Z,2.20
2019-01-27T15:05:25.490Z,2.20
2019-01-27T15:07:55.290Z,2.20
2019-01-27T15:10:26.801Z,2.20
2019-01-27T15:12:56.551Z,2.20
2019-01-27T15:15:26.585Z,2.20
2019-01-27T15:17:56.353Z,2.20
2019-01-27T15:20:31.883Z,2.20
2019-01-27T15:23:02.022Z,2.10
2019-01-27T15:25:31.688Z,2.20
2019-01-27T15:28:01.734Z,2.10
2019-01-27T15:30:36.275Z,2.20
2019-01-27T15:33:06.563Z,2.10
2019-01-27T15:35:36.290Z,2.20
2019-01-27T15:38:08.466Z,2.20
2019-01-27T15:40:38.589Z,2.20
2019-01-27T15:43:14.685Z,2.10
2019-01-27T15:45:44.419Z,2.10
2019-01-27T15:48:15.056Z,2.10
2019-01-27T15:50:48.327Z,2.10
2019-01-27T15:53:18.241Z,2.10
2019-01-27T15:55:49.453Z,2.10
2019-01-27T15:58:22.533Z,2.10
2019-01-27T16:00:52.876Z,2.10
2019-01-27T16:03:23.398Z,2.10
2019-01-27T16:05:53.145Z,2.10
2019-01-27T16:08:23.144Z,2.10
2019-01-27T16:10:53.278Z,2.10
2019-01-27T16:13:23.183Z,2.10
2019-01-27T16:15:52.943Z,2.10
2019-01-27T16:18:23.040Z,2.10
2019-01-27T16:20:52.617Z,2.20
2019-01-27T16:23:43.636Z,2.10
2019-01-27T16:26:13.276Z,2.10
2019-01-27T16:28:42.941Z,2.10
2019-01-27T16:31:34.250Z,2.20
2019-01-27T16:34:25.539Z,2.20
2019-01-27T16:36:55.134Z,2.20
2019-01-27T16:39:24.683Z,2.20
2019-01-27T16:41:54.184Z,2.20
2019-01-27T16:44:23.710Z,2.10
2019-01-27T16:46:53.218Z,2.10
2019-01-27T16:49:22.736Z,2.20
2019-01-27T16:51:52.321Z,2.20
2019-01-27T16:54:21.832Z,2.20
2019-01-27T16:56:51.345Z,2.20
2019-01-27T16:59:20.861Z,2.20
2019-01-27T17:02:05.005Z,2.20
2019-01-27T17:04:29.414Z,2.20
2019-01-27T17:06:59.898Z,2.20
2019-01-27T17:09:29.365Z,2.20
2019-01-27T17:11:58.888Z,2.20
2019-01-27T17:14:28.352Z,2.20
2019-01-27T17:16:57.834Z,2.20
2019-01-27T17:19:27.353Z,2.30
2019-01-27T17:21:56.867Z,2.20
2019-01-27T17:24:27.189Z,2.20
2019-01-27T17:26:57.548Z,2.30
2019-01-27T17:29:27.067Z,2.30
2019-01-27T17:31:56.528Z,2.20
2019-01-27T17:34:25.998Z,2.30
2019-01-27T17:36:55.460Z,2.30
2019-01-27T17:39:24.913Z,2.20
2019-01-27T17:41:54.436Z,2.20
2019-01-27T17:44:23.909Z,2.30
2019-01-27T17:46:53.455Z,2.30
2019-01-27T17:49:23.018Z,2.30
2019-01-27T17:51:52.597Z,2.20
2019-01-27T17:54:22.116Z,2.30
2019-01-27T17:57:16.504Z,2.30
2019-01-27T17:59:55.660Z,2.30
2019-01-27T18:02:42.609Z,2.30
2019-01-27T18:05:34.158Z,2.30
2019-01-27T18:08:34.527Z,2.30
2019-01-27T18:11:23.431Z,2.30
2019-01-27T18:14:05.838Z,2.30
2019-01-27T18:16:35.319Z,2.30
2019-01-27T18:19:05.013Z,2.30
2019-01-27T18:21:34.542Z,2.30
2019-01-27T18:24:04.236Z,2.30
2019-01-27T18:26:33.771Z,2.30
2019-01-27T18:29:03.400Z,2.30
2019-01-27T18:31:32.921Z,2.30
2019-01-27T18:34:02.415Z,2.30
2019-01-27T18:36:31.930Z,2.30
2019-01-27T18:39:01.373Z,2.30
2019-01-27T18:41:30.900Z,2.30
2019-01-27T18:44:00.466Z,2.30
2019-01-27T18:46:29.936Z,2.30
2019-01-27T18:48:59.371Z,2.40
2019-01-27T18:51:28.917Z,2.30
2019-01-27T18:54:16.800Z,2.40
2019-01-27T18:57:04.373Z,2.40
2019-01-27T19:00:04.639Z,2.40
2019-01-27T19:02:58.792Z,2.30
2019-01-27T19:05:47.914Z,2.40
2019-01-27T19:08:26.749Z,2.40
2019-01-27T19:11:18.311Z,2.30
2019-01-27T19:14:13.385Z,2.30
2019-01-27T19:17:00.304Z,2.30
2019-01-27T19:19:40.244Z,2.30
2019-01-27T19:22:27.230Z,2.30
2019-01-27T19:25:19.158Z,2.20
2019-01-27T19:27:57.666Z,2.30
2019-01-27T19:30:32.544Z,2.30
2019-01-27T19:33:10.264Z,2.20
2019-01-27T19:36:01.475Z,2.30
2019-01-27T19:38:45.900Z,2.30
2019-01-27T19:41:34.412Z,2.30
2019-01-27T19:44:25.617Z,2.30
2019-01-27T19:47:14.035Z,2.30
2019-01-27T19:50:02.456Z,2.30
2019-01-27T19:52:47.105Z,2.30
2019-01-27T19:55:38.395Z,2.30
2019-01-27T19:58:26.864Z,2.40
2019-01-27T20:01:33.185Z,2.40
2019-01-27T20:04:27.457Z,2.40
2019-01-27T20:07:19.538Z,2.40
2019-01-27T20:10:15.411Z,2.40
2019-01-27T20:13:08.560Z,2.40
2019-01-27T20:15:44.128Z,2.40
2019-01-27T20:18:31.060Z,2.40
2019-01-27T20:21:22.354Z,2.40
2019-01-27T20:24:09.165Z,2.40
2019-01-27T20:26:57.681Z,2.40
2019-01-27T20:29:37.716Z,2.40
2019-01-27T20:32:22.318Z,2.40
2019-01-27T20:35:19.733Z,2.50
2019-01-27T20:38:02.045Z,2.50
2019-01-27T20:40:53.301Z,2.50
2019-01-27T20:43:56.736Z,2.40
2019-01-27T20:46:35.169Z,2.50
2019-01-27T20:49:23.994Z,2.40
2019-01-27T20:52:27.420Z,2.50
2019-01-27T20:55:18.692Z,2.50
2019-01-27T20:58:10.806Z,2.50
2019-01-27T21:00:56.149Z,2.40
2019-01-27T21:03:53.484Z,2.50
2019-01-27T21:06:51.040Z,2.50
2019-01-27T21:09:45.485Z,2.50
2019-01-27T21:12:40.703Z,2.50
2019-01-27T21:15:34.108Z,2.50
2019-01-27T21:18:18.025Z,2.50
2019-01-27T21:20:47.647Z,2.50
2019-01-27T21:23:17.236Z,2.50
2019-01-27T21:25:46.958Z,2.50
2019-01-27T21:28:16.548Z,2.50
2019-01-27T21:30:46.266Z,2.50
2019-01-27T21:33:15.916Z,2.50
2019-01-27T21:35:45.571Z,2.50
2019-01-27T21:38:15.255Z,2.50
2019-01-27T21:40:45.517Z,2.50
2019-01-27T21:43:15.779Z,2.50
2019-01-27T21:45:45.544Z,2.50
2019-01-27T21:48:15.418Z,2.50
2019-01-27T21:50:45.248Z,2.50
2019-01-27T21:53:15.370Z,2.50
2019-01-27T21:55:45.296Z,2.50
2019-01-27T21:58:15.050Z,2.50
2019-01-27T22:00:44.887Z,2.60
2019-01-27T22:03:14.654Z,2.60
2019-01-27T22:05:44.494Z,2.60
2019-01-27T22:08:14.270Z,2.60
2019-01-27T22:10:44.187Z,2.60
2019-01-27T22:13:13.997Z,2.50
2019-01-27T22:15:44.839Z,2.60
2019-01-27T22:18:14.726Z,2.60
2019-01-27T22:20:44.560Z,2.60
2019-01-27T22:23:14.353Z,2.60
2019-01-27T22:25:44.247Z,2.60
2019-01-27T22:28:14.071Z,2.60
2019-01-27T22:30:43.943Z,2.60
2019-01-27T22:33:13.754Z,2.60
2019-01-27T22:35:44.049Z,2.60
2019-01-27T22:38:13.905Z,2.60
2019-01-27T22:40:43.730Z,2.60
2019-01-27T22:43:13.635Z,2.60
2019-01-27T22:45:43.408Z,2.60
2019-01-27T22:48:13.269Z,2.60
2019-01-27T22:50:43.089Z,2.60
2019-01-27T22:53:12.822Z,2.60
2019-01-27T22:55:42.711Z,2.60
2019-01-27T22:58:12.624Z,2.60
2019-01-27T23:01:03.394Z,2.60
2019-01-27T23:03:41.659Z,2.60
2019-01-27T23:06:11.472Z,2.60
2019-01-27T23:08:41.290Z,2.60
2019-01-27T23:11:11.115Z,2.60
2019-01-27T23:13:41.790Z,2.60
2019-01-27T23:16:11.707Z,2.60
2019-01-27T23:18:41.542Z,2.60
2019-01-27T23:21:11.390Z,2.60
2019-01-27T23:23:41.237Z,2.70
2019-01-27T23:26:11.091Z,2.60
2019-01-27T23:28:41.015Z,2.60
2019-01-27T23:31:10.938Z,2.60
2019-01-27T23:33:40.856Z,2.70
2019-01-27T23:36:12.539Z,2.60
2019-01-27T23:38:42.965Z,2.70
2019-01-27T23:41:12.752Z,2.60
2019-01-27T23:43:42.597Z,2.60
2019-01-27T23:46:12.313Z,2.70
2019-01-27T23:48:42.071Z,2.70
2019-01-27T23:51:11.838Z,2.60
2019-01-27T23:53:41.560Z,2.60
2019-01-27T23:56:11.268Z,2.60
2019-01-27T23:58:41.099Z,2.60
